sensor_id;sensor_type;location;lat;lon;timestamp;temperature;humidity
11532;DHT22;5822;51.000;5.874;2023-04-03T00:01:14;6.90;99.90
11532;DHT22;5822;51.000;5.874;2023-04-03T00:03:40;6.90;99.90
11532;DHT22;5822;51.000;5.874;2023-04-03T00:06:10;6.90;99.90
11532;DHT22;5822;51.000;5.874;2023-04-03T00:08:37;6.90;99.90
11532;DHT22;5822;51.000;5.874;2023-04-03T00:11:03;6.80;99.90
11532;DHT22;5822;51.000;5.874;2023-04-03T00:13:32;6.80;99.90
11532;DHT22;5822;51.000;5.874;2023-04-03T00:15:58;6.80;99.90
11532;DHT22;5822;51.000;5.874;2023-04-03T00:18:23;6.80;99.90
11532;DHT22;5822;51.000;5.874;2023-04-03T00:20:49;6.70;99.90
11532;DHT22;5822;51.000;5.874;2023-04-03T00:23:15;6.70;99.90
11532;DHT22;5822;51.000;5.874;2023-04-03T00:25:42;6.60;99.90
11532;DHT22;5822;51.000;5.874;2023-04-03T00:28:08;6.60;99.90
11532;DHT22;5822;51.000;5.874;2023-04-03T00:30:34;6.60;99.90
11532;DHT22;5822;51.000;5.874;2023-04-03T00:32:59;6.60;99.90
11532;DHT22;5822;51.000;5.874;2023-04-03T00:35:26;6.60;99.90
11532;DHT22;5822;51.000;5.874;2023-04-03T00:37:53;6.60;99.90
11532;DHT22;5822;51.000;5.874;2023-04-03T00:40:21;6.60;99.90
11532;DHT22;5822;51.000;5.874;2023-04-03T00:42:48;6.60;99.90
11532;DHT22;5822;51.000;5.874;2023-04-03T00:45:29;6.60;99.90
11532;DHT22;5822;51.000;5.874;2023-04-03T00:47:56;6.60;99.90
11532;DHT22;5822;51.000;5.874;2023-04-03T00:50:25;6.50;99.90
11532;DHT22;5822;51.000;5.874;2023-04-03T00:52:51;6.50;99.90
11532;DHT22;5822;51.000;5.874;2023-04-03T00:55:17;6.50;99.90
11532;DHT22;5822;51.000;5.874;2023-04-03T00:57:43;6.50;99.90
11532;DHT22;5822;51.000;5.874;2023-04-03T01:00:14;6.50;99.90
11532;DHT22;5822;51.000;5.874;2023-04-03T01:02:41;6.40;99.90
11532;DHT22;5822;51.000;5.874;2023-04-03T01:05:07;6.40;99.90
11532;DHT22;5822;51.000;5.874;2023-04-03T01:07:33;6.40;99.90
11532;DHT22;5822;51.000;5.874;2023-04-03T01:10:02;6.30;99.90
11532;DHT22;5822;51.000;5.874;2023-04-03T01:12:32;6.30;99.90
11532;DHT22;5822;51.000;5.874;2023-04-03T01:15:01;6.40;99.90
11532;DHT22;5822;51.000;5.874;2023-04-03T01:17:42;6.40;99.90
11532;DHT22;5822;51.000;5.874;2023-04-03T01:25:51;6.30;99.90
11532;DHT22;5822;51.000;5.874;2023-04-03T01:28:23;6.20;99.90
11532;DHT22;5822;51.000;5.874;2023-04-03T01:30:56;6.20;99.90
11532;DHT22;5822;51.000;5.874;2023-04-03T01:33:25;6.20;99.90
11532;DHT22;5822;51.000;5.874;2023-04-03T01:35:50;6.20;99.90
11532;DHT22;5822;51.000;5.874;2023-04-03T01:38:16;6.20;99.90
11532;DHT22;5822;51.000;5.874;2023-04-03T01:40:42;6.20;99.90
11532;DHT22;5822;51.000;5.874;2023-04-03T01:43:08;6.10;99.90
11532;DHT22;5822;51.000;5.874;2023-04-03T01:45:33;6.10;99.90
11532;DHT22;5822;51.000;5.874;2023-04-03T01:47:59;6.10;99.90
11532;DHT22;5822;51.000;5.874;2023-04-03T01:50:25;6.20;99.90
11532;DHT22;5822;51.000;5.874;2023-04-03T01:52:50;6.10;99.90
11532;DHT22;5822;51.000;5.874;2023-04-03T01:55:16;6.00;99.90
11532;DHT22;5822;51.000;5.874;2023-04-03T01:57:42;6.00;99.90
11532;DHT22;5822;51.000;5.874;2023-04-03T02:00:08;6.00;99.90
11532;DHT22;5822;51.000;5.874;2023-04-03T02:02:34;6.00;99.90
11532;DHT22;5822;51.000;5.874;2023-04-03T02:05:00;6.00;99.90
11532;DHT22;5822;51.000;5.874;2023-04-03T02:07:26;6.00;99.90
11532;DHT22;5822;51.000;5.874;2023-04-03T02:09:51;6.00;99.90
11532;DHT22;5822;51.000;5.874;2023-04-03T02:12:17;6.00;99.90
11532;DHT22;5822;51.000;5.874;2023-04-03T02:14:43;6.00;99.90
11532;DHT22;5822;51.000;5.874;2023-04-03T02:17:08;6.00;99.90
11532;DHT22;5822;51.000;5.874;2023-04-03T02:19:35;5.90;99.90
11532;DHT22;5822;51.000;5.874;2023-04-03T02:22:05;5.90;99.90
11532;DHT22;5822;51.000;5.874;2023-04-03T02:24:31;5.80;99.90
11532;DHT22;5822;51.000;5.874;2023-04-03T02:26:57;5.80;99.90
11532;DHT22;5822;51.000;5.874;2023-04-03T02:29:23;5.80;99.90
11532;DHT22;5822;51.000;5.874;2023-04-03T02:31:49;5.80;99.90
11532;DHT22;5822;51.000;5.874;2023-04-03T02:34:15;5.80;99.90
11532;DHT22;5822;51.000;5.874;2023-04-03T02:36:41;5.80;99.90
11532;DHT22;5822;51.000;5.874;2023-04-03T02:39:07;5.80;99.90
11532;DHT22;5822;51.000;5.874;2023-04-03T02:41:32;5.70;99.90
11532;DHT22;5822;51.000;5.874;2023-04-03T02:44:02;5.70;99.90
11532;DHT22;5822;51.000;5.874;2023-04-03T02:46:30;5.70;99.90
11532;DHT22;5822;51.000;5.874;2023-04-03T02:48:56;5.70;99.90
11532;DHT22;5822;51.000;5.874;2023-04-03T02:51:22;5.70;99.90
11532;DHT22;5822;51.000;5.874;2023-04-03T02:53:51;5.70;99.90
11532;DHT22;5822;51.000;5.874;2023-04-03T02:56:17;5.70;99.90
11532;DHT22;5822;51.000;5.874;2023-04-03T02:58:44;5.60;99.90
11532;DHT22;5822;51.000;5.874;2023-04-03T03:01:10;5.50;99.90
11532;DHT22;5822;51.000;5.874;2023-04-03T03:03:36;5.50;99.90
11532;DHT22;5822;51.000;5.874;2023-04-03T03:06:13;5.60;99.90
11532;DHT22;5822;51.000;5.874;2023-04-03T03:08:40;5.70;99.90
11532;DHT22;5822;51.000;5.874;2023-04-03T03:11:06;5.70;99.90
11532;DHT22;5822;51.000;5.874;2023-04-03T03:13:32;5.70;99.90
11532;DHT22;5822;51.000;5.874;2023-04-03T03:15:57;5.70;99.90
11532;DHT22;5822;51.000;5.874;2023-04-03T03:18:23;5.70;99.90
11532;DHT22;5822;51.000;5.874;2023-04-03T03:20:53;5.70;99.90
11532;DHT22;5822;51.000;5.874;2023-04-03T03:23:19;5.60;99.90
11532;DHT22;5822;51.000;5.874;2023-04-03T03:25:45;5.60;99.90
11532;DHT22;5822;51.000;5.874;2023-04-03T03:28:10;5.60;99.90
11532;DHT22;5822;51.000;5.874;2023-04-03T03:30:37;5.80;99.90
11532;DHT22;5822;51.000;5.874;2023-04-03T03:33:03;5.70;99.90
11532;DHT22;5822;51.000;5.874;2023-04-03T03:35:28;5.60;99.90
11532;DHT22;5822;51.000;5.874;2023-04-03T03:37:54;5.60;99.90
11532;DHT22;5822;51.000;5.874;2023-04-03T03:40:20;5.50;99.90
11532;DHT22;5822;51.000;5.874;2023-04-03T03:42:45;5.60;99.90
11532;DHT22;5822;51.000;5.874;2023-04-03T03:45:11;5.60;99.90
11532;DHT22;5822;51.000;5.874;2023-04-03T03:47:37;5.60;99.90
11532;DHT22;5822;51.000;5.874;2023-04-03T03:50:03;5.50;99.90
11532;DHT22;5822;51.000;5.874;2023-04-03T03:52:31;5.50;99.90
11532;DHT22;5822;51.000;5.874;2023-04-03T03:54:57;5.50;99.90
11532;DHT22;5822;51.000;5.874;2023-04-03T03:57:23;5.50;99.90
11532;DHT22;5822;51.000;5.874;2023-04-03T03:59:48;5.60;99.90
11532;DHT22;5822;51.000;5.874;2023-04-03T04:02:15;5.50;99.90
11532;DHT22;5822;51.000;5.874;2023-04-03T04:04:41;5.60;99.90
11532;DHT22;5822;51.000;5.874;2023-04-03T04:07:07;5.40;99.90
11532;DHT22;5822;51.000;5.874;2023-04-03T04:09:33;5.40;99.90
11532;DHT22;5822;51.000;5.874;2023-04-03T04:11:58;5.40;99.90
11532;DHT22;5822;51.000;5.874;2023-04-03T04:14:24;5.40;99.90
11532;DHT22;5822;51.000;5.874;2023-04-03T04:16:50;5.40;99.90
11532;DHT22;5822;51.000;5.874;2023-04-03T04:19:16;5.40;99.90
11532;DHT22;5822;51.000;5.874;2023-04-03T04:21:41;5.40;99.90
11532;DHT22;5822;51.000;5.874;2023-04-03T04:24:08;5.50;99.90
11532;DHT22;5822;51.000;5.874;2023-04-03T04:26:34;5.50;99.90
11532;DHT22;5822;51.000;5.874;2023-04-03T04:29:00;5.50;99.90
11532;DHT22;5822;51.000;5.874;2023-04-03T04:31:25;5.40;99.90
11532;DHT22;5822;51.000;5.874;2023-04-03T04:33:52;5.40;99.90
11532;DHT22;5822;51.000;5.874;2023-04-03T04:36:18;5.40;99.90
11532;DHT22;5822;51.000;5.874;2023-04-03T04:38:44;5.40;99.90
11532;DHT22;5822;51.000;5.874;2023-04-03T04:41:09;5.40;99.90
11532;DHT22;5822;51.000;5.874;2023-04-03T04:43:35;5.30;99.90
11532;DHT22;5822;51.000;5.874;2023-04-03T04:46:07;5.40;99.90
11532;DHT22;5822;51.000;5.874;2023-04-03T04:48:33;5.40;99.90
11532;DHT22;5822;51.000;5.874;2023-04-03T04:50:59;5.40;99.90
11532;DHT22;5822;51.000;5.874;2023-04-03T04:53:25;5.60;99.90
11532;DHT22;5822;51.000;5.874;2023-04-03T04:55:51;5.80;99.90
11532;DHT22;5822;51.000;5.874;2023-04-03T04:58:17;5.90;99.90
11532;DHT22;5822;51.000;5.874;2023-04-03T05:00:44;6.00;99.90
11532;DHT22;5822;51.000;5.874;2023-04-03T05:03:10;6.00;99.90
11532;DHT22;5822;51.000;5.874;2023-04-03T05:05:35;5.90;99.90
11532;DHT22;5822;51.000;5.874;2023-04-03T05:08:02;5.60;99.90
11532;DHT22;5822;51.000;5.874;2023-04-03T05:10:28;5.50;99.90
11532;DHT22;5822;51.000;5.874;2023-04-03T05:12:54;5.50;99.90
11532;DHT22;5822;51.000;5.874;2023-04-03T05:15:20;5.50;99.90
11532;DHT22;5822;51.000;5.874;2023-04-03T05:17:45;5.60;99.90
11532;DHT22;5822;51.000;5.874;2023-04-03T05:20:12;5.70;99.90
11532;DHT22;5822;51.000;5.874;2023-04-03T05:22:37;5.90;99.90
11532;DHT22;5822;51.000;5.874;2023-04-03T05:25:04;5.60;99.90
11532;DHT22;5822;51.000;5.874;2023-04-03T05:27:30;5.60;99.90
11532;DHT22;5822;51.000;5.874;2023-04-03T05:29:56;5.50;99.90
11532;DHT22;5822;51.000;5.874;2023-04-03T05:32:23;5.50;99.90
11532;DHT22;5822;51.000;5.874;2023-04-03T05:34:48;5.70;99.90
11532;DHT22;5822;51.000;5.874;2023-04-03T05:37:14;5.60;99.90
11532;DHT22;5822;51.000;5.874;2023-04-03T05:39:40;5.60;99.90
11532;DHT22;5822;51.000;5.874;2023-04-03T05:42:06;5.50;99.90
11532;DHT22;5822;51.000;5.874;2023-04-03T05:44:32;5.50;99.90
11532;DHT22;5822;51.000;5.874;2023-04-03T05:46:58;5.70;99.90
11532;DHT22;5822;51.000;5.874;2023-04-03T05:49:24;5.90;99.90
11532;DHT22;5822;51.000;5.874;2023-04-03T05:51:50;5.80;99.90
11532;DHT22;5822;51.000;5.874;2023-04-03T05:54:26;5.70;99.90
11532;DHT22;5822;51.000;5.874;2023-04-03T05:56:52;5.80;99.90
11532;DHT22;5822;51.000;5.874;2023-04-03T05:59:19;5.70;99.90
11532;DHT22;5822;51.000;5.874;2023-04-03T06:01:46;5.70;99.90
11532;DHT22;5822;51.000;5.874;2023-04-03T06:04:12;5.70;99.90
11532;DHT22;5822;51.000;5.874;2023-04-03T06:06:49;5.90;99.90
11532;DHT22;5822;51.000;5.874;2023-04-03T06:09:17;6.10;99.90
11532;DHT22;5822;51.000;5.874;2023-04-03T06:11:43;6.20;99.90
11532;DHT22;5822;51.000;5.874;2023-04-03T06:14:09;6.30;99.90
11532;DHT22;5822;51.000;5.874;2023-04-03T06:16:35;6.20;99.90
11532;DHT22;5822;51.000;5.874;2023-04-03T06:19:00;6.30;99.90
11532;DHT22;5822;51.000;5.874;2023-04-03T06:21:26;6.40;99.90
11532;DHT22;5822;51.000;5.874;2023-04-03T06:23:52;6.40;99.90
11532;DHT22;5822;51.000;5.874;2023-04-03T06:26:18;6.50;99.90
11532;DHT22;5822;51.000;5.874;2023-04-03T06:28:43;6.60;99.90
11532;DHT22;5822;51.000;5.874;2023-04-03T06:31:09;6.50;99.90
11532;DHT22;5822;51.000;5.874;2023-04-03T06:33:35;6.60;99.90
11532;DHT22;5822;51.000;5.874;2023-04-03T06:36:04;6.60;99.90
11532;DHT22;5822;51.000;5.874;2023-04-03T06:38:30;6.60;99.90
11532;DHT22;5822;51.000;5.874;2023-04-03T06:40:56;6.60;99.90
11532;DHT22;5822;51.000;5.874;2023-04-03T06:43:22;6.60;99.90
11532;DHT22;5822;51.000;5.874;2023-04-03T06:45:48;6.70;99.90
11532;DHT22;5822;51.000;5.874;2023-04-03T06:48:13;6.80;99.90
11532;DHT22;5822;51.000;5.874;2023-04-03T06:50:39;6.80;99.90
11532;DHT22;5822;51.000;5.874;2023-04-03T06:53:05;6.90;99.90
11532;DHT22;5822;51.000;5.874;2023-04-03T06:55:32;6.90;99.90
11532;DHT22;5822;51.000;5.874;2023-04-03T06:57:58;6.80;99.90
11532;DHT22;5822;51.000;5.874;2023-04-03T07:00:24;6.90;99.90
11532;DHT22;5822;51.000;5.874;2023-04-03T07:02:50;7.00;99.90
11532;DHT22;5822;51.000;5.874;2023-04-03T07:05:17;6.90;99.90
11532;DHT22;5822;51.000;5.874;2023-04-03T07:07:42;6.90;99.90
11532;DHT22;5822;51.000;5.874;2023-04-03T07:10:09;6.90;99.90
11532;DHT22;5822;51.000;5.874;2023-04-03T07:12:35;7.00;99.90
11532;DHT22;5822;51.000;5.874;2023-04-03T07:15:01;7.00;99.90
11532;DHT22;5822;51.000;5.874;2023-04-03T07:17:28;7.10;99.90
11532;DHT22;5822;51.000;5.874;2023-04-03T07:19:53;7.10;99.90
11532;DHT22;5822;51.000;5.874;2023-04-03T07:22:19;7.20;99.90
11532;DHT22;5822;51.000;5.874;2023-04-03T07:24:45;7.20;99.90
11532;DHT22;5822;51.000;5.874;2023-04-03T07:27:11;7.20;99.90
11532;DHT22;5822;51.000;5.874;2023-04-03T07:29:38;7.30;99.90
11532;DHT22;5822;51.000;5.874;2023-04-03T07:32:05;7.30;99.90
11532;DHT22;5822;51.000;5.874;2023-04-03T07:34:32;7.30;99.90
11532;DHT22;5822;51.000;5.874;2023-04-03T07:36:58;7.40;99.90
11532;DHT22;5822;51.000;5.874;2023-04-03T07:39:24;7.40;99.90
11532;DHT22;5822;51.000;5.874;2023-04-03T07:41:50;7.30;99.90
11532;DHT22;5822;51.000;5.874;2023-04-03T07:44:16;7.40;99.90
11532;DHT22;5822;51.000;5.874;2023-04-03T07:46:41;7.40;99.90
11532;DHT22;5822;51.000;5.874;2023-04-03T07:49:07;7.40;99.90
11532;DHT22;5822;51.000;5.874;2023-04-03T07:51:33;7.50;99.90
11532;DHT22;5822;51.000;5.874;2023-04-03T07:53:59;7.50;99.90
11532;DHT22;5822;51.000;5.874;2023-04-03T07:56:25;7.50;99.90
11532;DHT22;5822;51.000;5.874;2023-04-03T07:58:51;7.60;99.90
11532;DHT22;5822;51.000;5.874;2023-04-03T08:01:17;7.70;99.90
11532;DHT22;5822;51.000;5.874;2023-04-03T08:03:42;7.60;99.90
11532;DHT22;5822;51.000;5.874;2023-04-03T08:06:08;7.60;99.90
11532;DHT22;5822;51.000;5.874;2023-04-03T08:08:34;7.60;99.90
11532;DHT22;5822;51.000;5.874;2023-04-03T08:11:01;7.60;99.90
11532;DHT22;5822;51.000;5.874;2023-04-03T08:13:28;7.70;99.90
11532;DHT22;5822;51.000;5.874;2023-04-03T08:15:55;7.80;99.90
11532;DHT22;5822;51.000;5.874;2023-04-03T08:18:23;7.80;99.90
11532;DHT22;5822;51.000;5.874;2023-04-03T08:20:50;7.80;99.90
11532;DHT22;5822;51.000;5.874;2023-04-03T08:23:17;7.80;99.90
11532;DHT22;5822;51.000;5.874;2023-04-03T08:25:43;7.80;99.90
11532;DHT22;5822;51.000;5.874;2023-04-03T08:28:10;7.90;99.90
11532;DHT22;5822;51.000;5.874;2023-04-03T08:30:40;7.90;99.90
11532;DHT22;5822;51.000;5.874;2023-04-03T08:33:06;7.90;99.90
11532;DHT22;5822;51.000;5.874;2023-04-03T08:35:32;8.00;99.90
11532;DHT22;5822;51.000;5.874;2023-04-03T08:37:58;8.10;99.90
11532;DHT22;5822;51.000;5.874;2023-04-03T08:40:24;8.10;99.90
11532;DHT22;5822;51.000;5.874;2023-04-03T08:45:55;8.20;99.90
11532;DHT22;5822;51.000;5.874;2023-04-03T08:48:29;8.20;99.90
11532;DHT22;5822;51.000;5.874;2023-04-03T08:51:03;8.30;99.90
11532;DHT22;5822;51.000;5.874;2023-04-03T08:53:33;8.30;99.90
11532;DHT22;5822;51.000;5.874;2023-04-03T08:56:08;8.30;99.90
11532;DHT22;5822;51.000;5.874;2023-04-03T08:58:58;8.30;99.90
11532;DHT22;5822;51.000;5.874;2023-04-03T09:01:43;8.40;99.90
11532;DHT22;5822;51.000;5.874;2023-04-03T09:04:13;8.40;99.90
11532;DHT22;5822;51.000;5.874;2023-04-03T09:06:39;8.50;99.90
11532;DHT22;5822;51.000;5.874;2023-04-03T09:14:52;8.70;99.90
11532;DHT22;5822;51.000;5.874;2023-04-03T09:22:57;8.70;99.90
11532;DHT22;5822;51.000;5.874;2023-04-03T09:25:30;8.70;99.90
11532;DHT22;5822;51.000;5.874;2023-04-03T09:27:59;8.70;99.90
11532;DHT22;5822;51.000;5.874;2023-04-03T09:30:26;8.70;99.90
11532;DHT22;5822;51.000;5.874;2023-04-03T09:32:53;8.70;99.90
11532;DHT22;5822;51.000;5.874;2023-04-03T09:37:50;8.90;99.90
11532;DHT22;5822;51.000;5.874;2023-04-03T09:42:57;8.80;99.90
11532;DHT22;5822;51.000;5.874;2023-04-03T09:45:27;8.90;99.90
11532;DHT22;5822;51.000;5.874;2023-04-03T09:53:43;9.10;99.90
11532;DHT22;5822;51.000;5.874;2023-04-03T09:59:07;9.20;99.90
11532;DHT22;5822;51.000;5.874;2023-04-03T10:01:36;9.30;99.90
11532;DHT22;5822;51.000;5.874;2023-04-03T10:06:34;9.20;99.90
11532;DHT22;5822;51.000;5.874;2023-04-03T10:09:04;9.30;99.90
11532;DHT22;5822;51.000;5.874;2023-04-03T10:11:30;9.30;99.90
11532;DHT22;5822;51.000;5.874;2023-04-03T10:14:02;9.40;99.90
11532;DHT22;5822;51.000;5.874;2023-04-03T10:16:41;9.30;99.90
11532;DHT22;5822;51.000;5.874;2023-04-03T10:19:18;9.40;99.90
11532;DHT22;5822;51.000;5.874;2023-04-03T10:22:02;9.50;99.90
11532;DHT22;5822;51.000;5.874;2023-04-03T10:27:53;9.30;99.90
11532;DHT22;5822;51.000;5.874;2023-04-03T10:40:45;9.50;99.90
11532;DHT22;5822;51.000;5.874;2023-04-03T10:43:36;9.40;99.90
11532;DHT22;5822;51.000;5.874;2023-04-03T10:46:21;9.50;99.90
11532;DHT22;5822;51.000;5.874;2023-04-03T10:52:06;9.40;99.90
11532;DHT22;5822;51.000;5.874;2023-04-03T10:54:49;9.40;99.90
11532;DHT22;5822;51.000;5.874;2023-04-03T10:57:18;9.40;99.90
11532;DHT22;5822;51.000;5.874;2023-04-03T10:59:58;9.50;99.90
11532;DHT22;5822;51.000;5.874;2023-04-03T11:02:31;9.50;99.90
11532;DHT22;5822;51.000;5.874;2023-04-03T11:05:02;9.50;99.90
11532;DHT22;5822;51.000;5.874;2023-04-03T11:07:34;9.60;99.90
11532;DHT22;5822;51.000;5.874;2023-04-03T11:10:12;9.60;99.90
11532;DHT22;5822;51.000;5.874;2023-04-03T11:12:47;9.70;99.90
11532;DHT22;5822;51.000;5.874;2023-04-03T11:15:16;9.60;99.90
11532;DHT22;5822;51.000;5.874;2023-04-03T11:17:58;9.60;99.90
11532;DHT22;5822;51.000;5.874;2023-04-03T11:20:30;9.70;99.90
11532;DHT22;5822;51.000;5.874;2023-04-03T11:23:17;9.80;99.90
11532;DHT22;5822;51.000;5.874;2023-04-03T11:25:50;9.80;99.90
11532;DHT22;5822;51.000;5.874;2023-04-03T11:28:17;9.90;99.90
11532;DHT22;5822;51.000;5.874;2023-04-03T11:37:04;9.90;99.90
11532;DHT22;5822;51.000;5.874;2023-04-03T11:39:35;10.00;99.90
11532;DHT22;5822;51.000;5.874;2023-04-03T11:42:36;9.90;99.90
11532;DHT22;5822;51.000;5.874;2023-04-03T12:14:01;10.60;99.90
11532;DHT22;5822;51.000;5.874;2023-04-03T12:16:33;10.70;99.90
11532;DHT22;5822;51.000;5.874;2023-04-03T12:24:24;11.00;99.90
11532;DHT22;5822;51.000;5.874;2023-04-03T12:29:37;11.10;99.90
11532;DHT22;5822;51.000;5.874;2023-04-03T12:46:23;10.70;99.90
11532;DHT22;5822;51.000;5.874;2023-04-03T12:48:52;10.80;99.90
11532;DHT22;5822;51.000;5.874;2023-04-03T12:51:42;10.80;99.90
11532;DHT22;5822;51.000;5.874;2023-04-03T12:54:30;10.80;99.90
11532;DHT22;5822;51.000;5.874;2023-04-03T12:57:20;10.80;99.90
11532;DHT22;5822;51.000;5.874;2023-04-03T12:59:47;10.90;99.90
11532;DHT22;5822;51.000;5.874;2023-04-03T13:02:21;10.90;99.90
11532;DHT22;5822;51.000;5.874;2023-04-03T13:04:49;10.90;99.90
11532;DHT22;5822;51.000;5.874;2023-04-03T13:07:36;10.80;99.90
11532;DHT22;5822;51.000;5.874;2023-04-03T13:10:17;10.80;99.90
11532;DHT22;5822;51.000;5.874;2023-04-03T13:15:17;10.90;99.90
11532;DHT22;5822;51.000;5.874;2023-04-03T13:17:43;10.90;99.90
11532;DHT22;5822;51.000;5.874;2023-04-03T13:20:11;10.90;99.90
11532;DHT22;5822;51.000;5.874;2023-04-03T13:22:44;11.00;99.90
11532;DHT22;5822;51.000;5.874;2023-04-03T13:25:14;11.10;99.90
11532;DHT22;5822;51.000;5.874;2023-04-03T13:27:42;11.20;99.90
11532;DHT22;5822;51.000;5.874;2023-04-03T13:30:22;11.20;99.90
11532;DHT22;5822;51.000;5.874;2023-04-03T13:32:48;11.20;99.90
11532;DHT22;5822;51.000;5.874;2023-04-03T13:35:32;11.20;99.90
11532;DHT22;5822;51.000;5.874;2023-04-03T13:38:34;11.30;99.90
11532;DHT22;5822;51.000;5.874;2023-04-03T13:40:56;11.50;99.90
11532;DHT22;5822;51.000;5.874;2023-04-03T13:43:28;11.60;99.90
11532;DHT22;5822;51.000;5.874;2023-04-03T13:46:20;11.80;99.90
11532;DHT22;5822;51.000;5.874;2023-04-03T13:48:50;11.90;99.90
11532;DHT22;5822;51.000;5.874;2023-04-03T13:51:20;12.00;99.90
11532;DHT22;5822;51.000;5.874;2023-04-03T13:53:49;12.00;99.90
11532;DHT22;5822;51.000;5.874;2023-04-03T13:56:23;12.10;99.90
11532;DHT22;5822;51.000;5.874;2023-04-03T13:58:58;12.20;99.90
11532;DHT22;5822;51.000;5.874;2023-04-03T14:01:24;12.30;99.90
11532;DHT22;5822;51.000;5.874;2023-04-03T14:03:56;12.40;99.90
11532;DHT22;5822;51.000;5.874;2023-04-03T14:06:22;12.60;99.90
11532;DHT22;5822;51.000;5.874;2023-04-03T14:08:49;12.70;99.90
11532;DHT22;5822;51.000;5.874;2023-04-03T14:11:26;12.80;99.90
11532;DHT22;5822;51.000;5.874;2023-04-03T14:14:09;12.80;99.90
11532;DHT22;5822;51.000;5.874;2023-04-03T14:16:39;12.90;99.90
11532;DHT22;5822;51.000;5.874;2023-04-03T14:19:06;13.00;99.90
11532;DHT22;5822;51.000;5.874;2023-04-03T14:21:33;13.10;99.90
11532;DHT22;5822;51.000;5.874;2023-04-03T14:23:59;13.10;99.90
11532;DHT22;5822;51.000;5.874;2023-04-03T14:26:25;13.20;99.90
11532;DHT22;5822;51.000;5.874;2023-04-03T14:28:53;13.20;99.90
11532;DHT22;5822;51.000;5.874;2023-04-03T14:31:23;13.30;99.90
11532;DHT22;5822;51.000;5.874;2023-04-03T14:33:49;13.30;99.90
11532;DHT22;5822;51.000;5.874;2023-04-03T14:36:21;13.30;99.90
11532;DHT22;5822;51.000;5.874;2023-04-03T14:38:48;13.40;99.90
11532;DHT22;5822;51.000;5.874;2023-04-03T14:41:17;13.40;99.90
11532;DHT22;5822;51.000;5.874;2023-04-03T14:43:44;13.40;99.90
11532;DHT22;5822;51.000;5.874;2023-04-03T14:46:34;13.50;99.90
11532;DHT22;5822;51.000;5.874;2023-04-03T14:49:02;13.60;99.90
11532;DHT22;5822;51.000;5.874;2023-04-03T14:51:28;13.60;99.90
11532;DHT22;5822;51.000;5.874;2023-04-03T14:53:53;13.60;99.90
11532;DHT22;5822;51.000;5.874;2023-04-03T14:56:28;13.60;99.90
11532;DHT22;5822;51.000;5.874;2023-04-03T14:58:59;13.60;99.90
11532;DHT22;5822;51.000;5.874;2023-04-03T15:01:27;13.70;99.90
11532;DHT22;5822;51.000;5.874;2023-04-03T15:03:52;13.70;99.90
11532;DHT22;5822;51.000;5.874;2023-04-03T15:06:18;13.70;99.90
11532;DHT22;5822;51.000;5.874;2023-04-03T15:08:46;13.80;99.90
11532;DHT22;5822;51.000;5.874;2023-04-03T15:11:13;13.80;99.90
11532;DHT22;5822;51.000;5.874;2023-04-03T15:13:39;13.80;99.90
11532;DHT22;5822;51.000;5.874;2023-04-03T15:16:17;13.80;99.90
11532;DHT22;5822;51.000;5.874;2023-04-03T15:18:45;13.80;99.90
11532;DHT22;5822;51.000;5.874;2023-04-03T15:21:11;13.90;99.90
11532;DHT22;5822;51.000;5.874;2023-04-03T15:23:37;13.80;99.90
11532;DHT22;5822;51.000;5.874;2023-04-03T15:26:03;13.90;99.90
11532;DHT22;5822;51.000;5.874;2023-04-03T15:28:36;13.90;99.90
11532;DHT22;5822;51.000;5.874;2023-04-03T15:31:03;13.90;99.90
11532;DHT22;5822;51.000;5.874;2023-04-03T15:33:30;13.80;99.90
11532;DHT22;5822;51.000;5.874;2023-04-03T15:35:56;13.70;99.90
11532;DHT22;5822;51.000;5.874;2023-04-03T15:38:22;13.60;99.90
11532;DHT22;5822;51.000;5.874;2023-04-03T15:40:47;13.50;99.90
11532;DHT22;5822;51.000;5.874;2023-04-03T15:43:14;13.40;99.90
11532;DHT22;5822;51.000;5.874;2023-04-03T15:45:40;13.30;99.90
11532;DHT22;5822;51.000;5.874;2023-04-03T15:48:06;13.10;99.90
11532;DHT22;5822;51.000;5.874;2023-04-03T15:50:33;13.00;99.90
11532;DHT22;5822;51.000;5.874;2023-04-03T15:53:00;13.00;99.90
11532;DHT22;5822;51.000;5.874;2023-04-03T15:55:29;12.90;99.90
11532;DHT22;5822;51.000;5.874;2023-04-03T15:57:55;12.80;99.90
11532;DHT22;5822;51.000;5.874;2023-04-03T16:00:22;12.80;99.90
11532;DHT22;5822;51.000;5.874;2023-04-03T16:02:53;12.70;99.90
11532;DHT22;5822;51.000;5.874;2023-04-03T16:05:20;12.60;99.90
11532;DHT22;5822;51.000;5.874;2023-04-03T16:07:46;12.60;99.90
11532;DHT22;5822;51.000;5.874;2023-04-03T16:10:14;12.60;99.90
11532;DHT22;5822;51.000;5.874;2023-04-03T16:12:40;12.60;99.90
11532;DHT22;5822;51.000;5.874;2023-04-03T16:15:07;12.60;99.90
11532;DHT22;5822;51.000;5.874;2023-04-03T16:17:34;12.50;99.90
11532;DHT22;5822;51.000;5.874;2023-04-03T16:20:00;12.50;99.90
11532;DHT22;5822;51.000;5.874;2023-04-03T16:22:27;12.40;99.90
11532;DHT22;5822;51.000;5.874;2023-04-03T16:24:53;12.30;99.90
11532;DHT22;5822;51.000;5.874;2023-04-03T16:27:20;12.30;99.90
11532;DHT22;5822;51.000;5.874;2023-04-03T16:29:46;12.30;99.90
11532;DHT22;5822;51.000;5.874;2023-04-03T16:32:12;12.30;99.90
11532;DHT22;5822;51.000;5.874;2023-04-03T16:34:38;12.20;99.90
11532;DHT22;5822;51.000;5.874;2023-04-03T16:37:05;12.20;99.90
11532;DHT22;5822;51.000;5.874;2023-04-03T16:39:34;12.20;99.90
11532;DHT22;5822;51.000;5.874;2023-04-03T16:42:00;12.20;99.90
11532;DHT22;5822;51.000;5.874;2023-04-03T16:44:25;12.10;99.90
11532;DHT22;5822;51.000;5.874;2023-04-03T16:46:51;12.00;99.90
11532;DHT22;5822;51.000;5.874;2023-04-03T16:49:17;12.00;99.90
11532;DHT22;5822;51.000;5.874;2023-04-03T16:51:43;12.00;99.90
11532;DHT22;5822;51.000;5.874;2023-04-03T16:54:08;11.90;99.90
11532;DHT22;5822;51.000;5.874;2023-04-03T16:56:36;11.80;99.90
11532;DHT22;5822;51.000;5.874;2023-04-03T16:59:02;11.80;99.90
11532;DHT22;5822;51.000;5.874;2023-04-03T17:01:27;11.70;99.90
11532;DHT22;5822;51.000;5.874;2023-04-03T17:03:53;11.80;99.90
11532;DHT22;5822;51.000;5.874;2023-04-03T17:06:20;11.70;99.90
11532;DHT22;5822;51.000;5.874;2023-04-03T17:08:48;11.70;99.90
11532;DHT22;5822;51.000;5.874;2023-04-03T17:11:14;11.70;99.90
11532;DHT22;5822;51.000;5.874;2023-04-03T17:13:40;11.60;99.90
11532;DHT22;5822;51.000;5.874;2023-04-03T17:16:13;11.60;99.90
11532;DHT22;5822;51.000;5.874;2023-04-03T17:18:39;11.60;99.90
11532;DHT22;5822;51.000;5.874;2023-04-03T17:21:06;11.50;99.90
11532;DHT22;5822;51.000;5.874;2023-04-03T17:23:32;11.50;99.90
11532;DHT22;5822;51.000;5.874;2023-04-03T17:26:00;11.40;99.90
11532;DHT22;5822;51.000;5.874;2023-04-03T17:28:26;11.40;99.90
11532;DHT22;5822;51.000;5.874;2023-04-03T17:31:00;11.40;99.90
11532;DHT22;5822;51.000;5.874;2023-04-03T17:33:26;11.30;99.90
11532;DHT22;5822;51.000;5.874;2023-04-03T17:35:56;11.30;99.90
11532;DHT22;5822;51.000;5.874;2023-04-03T17:38:21;11.30;99.90
11532;DHT22;5822;51.000;5.874;2023-04-03T17:40:47;11.30;99.90
11532;DHT22;5822;51.000;5.874;2023-04-03T17:43:13;11.30;99.90
11532;DHT22;5822;51.000;5.874;2023-04-03T17:45:39;11.30;99.90
11532;DHT22;5822;51.000;5.874;2023-04-03T17:48:04;11.20;99.90
11532;DHT22;5822;51.000;5.874;2023-04-03T17:50:30;11.20;99.90
11532;DHT22;5822;51.000;5.874;2023-04-03T17:52:56;11.10;99.90
11532;DHT22;5822;51.000;5.874;2023-04-03T17:55:22;11.10;99.90
11532;DHT22;5822;51.000;5.874;2023-04-03T17:57:47;11.10;99.90